sensor_id;sensor_type;location;lat;lon;timestamp;P1;durP1;ratioP1;P2;durP2;ratioP2
36449;SDS011;22475;51.390;7.180;2023-05-07T00:02:25;1.15;;;0.95;;
36449;SDS011;22475;51.390;7.180;2023-05-07T00:04:53;2.90;;;0.82;;
36449;SDS011;22475;51.390;7.180;2023-05-07T00:07:20;3.97;;;1.40;;
36449;SDS011;22475;51.390;7.180;2023-05-07T00:09:49;1.10;;;1.00;;
36449;SDS011;22475;51.390;7.180;2023-05-07T00:12:16;1.33;;;0.90;;
36449;SDS011;22475;51.390;7.180;2023-05-07T00:14:42;1.73;;;1.35;;
36449;SDS011;22475;51.390;7.180;2023-05-07T00:17:10;0.98;;;0.88;;
36449;SDS011;22475;51.390;7.180;2023-05-07T00:19:37;1.00;;;0.85;;
36449;SDS011;22475;51.390;7.180;2023-05-07T00:22:05;1.88;;;1.25;;
36449;SDS011;22475;51.390;7.180;2023-05-07T00:24:31;2.78;;;1.20;;
36449;SDS011;22475;51.390;7.180;2023-05-07T00:26:58;1.60;;;1.35;;
36449;SDS011;22475;51.390;7.180;2023-05-07T00:29:25;4.72;;;1.38;;
36449;SDS011;22475;51.390;7.180;2023-05-07T00:31:52;1.23;;;1.13;;
36449;SDS011;22475;51.390;7.180;2023-05-07T00:34:19;0.95;;;0.90;;
36449;SDS011;22475;51.390;7.180;2023-05-07T00:36:46;1.52;;;0.80;;
36449;SDS011;22475;51.390;7.180;2023-05-07T00:39:14;1.52;;;0.80;;
36449;SDS011;22475;51.390;7.180;2023-05-07T00:41:41;1.00;;;0.98;;
36449;SDS011;22475;51.390;7.180;2023-05-07T00:44:11;1.37;;;1.07;;
36449;SDS011;22475;51.390;7.180;2023-05-07T00:46:37;1.15;;;1.05;;
36449;SDS011;22475;51.390;7.180;2023-05-07T00:49:04;0.73;;;0.73;;
36449;SDS011;22475;51.390;7.180;2023-05-07T00:51:32;1.20;;;0.95;;
36449;SDS011;22475;51.390;7.180;2023-05-07T00:54:00;1.63;;;1.38;;
36449;SDS011;22475;51.390;7.180;2023-05-07T00:56:29;2.40;;;1.30;;
36449;SDS011;22475;51.390;7.180;2023-05-07T00:58:57;2.78;;;0.95;;
36449;SDS011;22475;51.390;7.180;2023-05-07T01:01:24;5.13;;;1.35;;
36449;SDS011;22475;51.390;7.180;2023-05-07T01:03:51;2.17;;;1.10;;
36449;SDS011;22475;51.390;7.180;2023-05-07T01:06:18;4.35;;;0.88;;
36449;SDS011;22475;51.390;7.180;2023-05-07T01:08:46;1.15;;;1.05;;
36449;SDS011;22475;51.390;7.180;2023-05-07T01:11:15;0.80;;;0.80;;
36449;SDS011;22475;51.390;7.180;2023-05-07T01:13:45;3.70;;;1.30;;
36449;SDS011;22475;51.390;7.180;2023-05-07T01:16:13;1.83;;;1.38;;
36449;SDS011;22475;51.390;7.180;2023-05-07T01:18:40;2.53;;;1.42;;
36449;SDS011;22475;51.390;7.180;2023-05-07T01:21:07;1.10;;;1.00;;
36449;SDS011;22475;51.390;7.180;2023-05-07T01:23:38;2.78;;;1.75;;
36449;SDS011;22475;51.390;7.180;2023-05-07T01:26:05;1.65;;;1.02;;
36449;SDS011;22475;51.390;7.180;2023-05-07T01:28:32;5.03;;;1.70;;
36449;SDS011;22475;51.390;7.180;2023-05-07T01:31:00;2.35;;;1.38;;
36449;SDS011;22475;51.390;7.180;2023-05-07T01:33:29;1.60;;;1.08;;
36449;SDS011;22475;51.390;7.180;2023-05-07T01:35:57;3.00;;;0.90;;
36449;SDS011;22475;51.390;7.180;2023-05-07T01:38:27;4.88;;;1.10;;
36449;SDS011;22475;51.390;7.180;2023-05-07T01:40:56;3.35;;;1.00;;
36449;SDS011;22475;51.390;7.180;2023-05-07T01:43:24;1.27;;;1.13;;
36449;SDS011;22475;51.390;7.180;2023-05-07T01:45:51;1.83;;;1.40;;
36449;SDS011;22475;51.390;7.180;2023-05-07T01:48:19;2.67;;;1.70;;
36449;SDS011;22475;51.390;7.180;2023-05-07T01:50:46;1.58;;;1.20;;
36449;SDS011;22475;51.390;7.180;2023-05-07T01:53:13;1.85;;;1.00;;
36449;SDS011;22475;51.390;7.180;2023-05-07T01:55:40;1.73;;;1.02;;
36449;SDS011;22475;51.390;7.180;2023-05-07T01:58:08;1.38;;;1.27;;
36449;SDS011;22475;51.390;7.180;2023-05-07T02:00:34;2.15;;;1.42;;
36449;SDS011;22475;51.390;7.180;2023-05-07T02:03:01;3.17;;;1.27;;
36449;SDS011;22475;51.390;7.180;2023-05-07T02:05:28;1.48;;;1.38;;
36449;SDS011;22475;51.390;7.180;2023-05-07T02:07:55;1.73;;;1.30;;
36449;SDS011;22475;51.390;7.180;2023-05-07T02:10:22;0.98;;;0.98;;
36449;SDS011;22475;51.390;7.180;2023-05-07T02:12:48;1.73;;;0.98;;
36449;SDS011;22475;51.390;7.180;2023-05-07T02:15:17;1.88;;;1.13;;
36449;SDS011;22475;51.390;7.180;2023-05-07T02:17:57;1.45;;;1.33;;
36449;SDS011;22475;51.390;7.180;2023-05-07T02:20:25;0.90;;;0.85;;
36449;SDS011;22475;51.390;7.180;2023-05-07T02:22:52;1.48;;;1.48;;
36449;SDS011;22475;51.390;7.180;2023-05-07T02:25:19;4.35;;;1.33;;
36449;SDS011;22475;51.390;7.180;2023-05-07T02:27:45;1.00;;;0.98;;
36449;SDS011;22475;51.390;7.180;2023-05-07T02:30:13;1.50;;;1.23;;
36449;SDS011;22475;51.390;7.180;2023-05-07T02:32:41;1.67;;;1.25;;
36449;SDS011;22475;51.390;7.180;2023-05-07T02:35:08;1.58;;;1.10;;
36449;SDS011;22475;51.390;7.180;2023-05-07T02:37:35;1.33;;;1.23;;
36449;SDS011;22475;51.390;7.180;2023-05-07T02:40:02;1.33;;;1.27;;
36449;SDS011;22475;51.390;7.180;2023-05-07T02:42:29;1.60;;;1.50;;
36449;SDS011;22475;51.390;7.180;2023-05-07T02:44:56;0.70;;;0.70;;
36449;SDS011;22475;51.390;7.180;2023-05-07T02:47:24;1.00;;;1.00;;
36449;SDS011;22475;51.390;7.180;2023-05-07T02:50:01;1.40;;;0.93;;
36449;SDS011;22475;51.390;7.180;2023-05-07T02:52:28;2.60;;;1.60;;
36449;SDS011;22475;51.390;7.180;2023-05-07T02:54:55;1.95;;;1.10;;
36449;SDS011;22475;51.390;7.180;2023-05-07T02:57:22;2.30;;;1.27;;
36449;SDS011;22475;51.390;7.180;2023-05-07T02:59:49;3.33;;;1.33;;
36449;SDS011;22475;51.390;7.180;2023-05-07T03:02:16;3.17;;;1.20;;
36449;SDS011;22475;51.390;7.180;2023-05-07T03:04:42;1.65;;;1.48;;
36449;SDS011;22475;51.390;7.180;2023-05-07T03:07:10;4.55;;;1.27;;
36449;SDS011;22475;51.390;7.180;2023-05-07T03:09:37;1.27;;;1.05;;
36449;SDS011;22475;51.390;7.180;2023-05-07T03:12:04;1.20;;;1.10;;
36449;SDS011;22475;51.390;7.180;2023-05-07T03:14:31;1.40;;;1.13;;
36449;SDS011;22475;51.390;7.180;2023-05-07T03:16:58;1.45;;;1.35;;
36449;SDS011;22475;51.390;7.180;2023-05-07T03:19:24;1.10;;;1.00;;
36449;SDS011;22475;51.390;7.180;2023-05-07T03:21:51;1.65;;;1.10;;
36449;SDS011;22475;51.390;7.180;2023-05-07T03:24:19;2.67;;;1.63;;
36449;SDS011;22475;51.390;7.180;2023-05-07T03:26:46;1.10;;;0.90;;
36449;SDS011;22475;51.390;7.180;2023-05-07T03:29:13;0.98;;;0.80;;
36449;SDS011;22475;51.390;7.180;2023-05-07T03:31:40;3.00;;;1.58;;
36449;SDS011;22475;51.390;7.180;2023-05-07T03:34:06;1.92;;;1.20;;
36449;SDS011;22475;51.390;7.180;2023-05-07T03:36:33;5.53;;;1.42;;
36449;SDS011;22475;51.390;7.180;2023-05-07T03:39:00;1.42;;;1.33;;
36449;SDS011;22475;51.390;7.180;2023-05-07T03:41:28;1.88;;;1.10;;
36449;SDS011;22475;51.390;7.180;2023-05-07T03:43:55;1.85;;;1.75;;
36449;SDS011;22475;51.390;7.180;2023-05-07T03:46:22;1.70;;;1.60;;
36449;SDS011;22475;51.390;7.180;2023-05-07T03:48:51;0.80;;;0.80;;
36449;SDS011;22475;51.390;7.180;2023-05-07T03:51:17;1.23;;;1.15;;
36449;SDS011;22475;51.390;7.180;2023-05-07T03:53:44;1.25;;;1.17;;
36449;SDS011;22475;51.390;7.180;2023-05-07T03:56:11;2.33;;;1.40;;
36449;SDS011;22475;51.390;7.180;2023-05-07T03:58:39;1.08;;;1.00;;
36449;SDS011;22475;51.390;7.180;2023-05-07T04:01:06;2.38;;;1.80;;
36449;SDS011;22475;51.390;7.180;2023-05-07T04:03:32;3.72;;;1.45;;
36449;SDS011;22475;51.390;7.180;2023-05-07T04:05:59;4.82;;;1.10;;
36449;SDS011;22475;51.390;7.180;2023-05-07T04:08:26;1.85;;;0.90;;
36449;SDS011;22475;51.390;7.180;2023-05-07T04:10:56;5.80;;;1.25;;
36449;SDS011;22475;51.390;7.180;2023-05-07T04:13:23;1.50;;;1.38;;
36449;SDS011;22475;51.390;7.180;2023-05-07T04:15:51;1.38;;;0.93;;
36449;SDS011;22475;51.390;7.180;2023-05-07T04:18:18;7.28;;;1.42;;
36449;SDS011;22475;51.390;7.180;2023-05-07T04:20:46;1.65;;;0.90;;
36449;SDS011;22475;51.390;7.180;2023-05-07T04:23:14;1.00;;;0.90;;
36449;SDS011;22475;51.390;7.180;2023-05-07T04:25:41;1.23;;;1.15;;
36449;SDS011;22475;51.390;7.180;2023-05-07T04:28:07;1.92;;;1.75;;
36449;SDS011;22475;51.390;7.180;2023-05-07T04:30:34;1.30;;;1.20;;
36449;SDS011;22475;51.390;7.180;2023-05-07T04:33:02;2.67;;;1.88;;
36449;SDS011;22475;51.390;7.180;2023-05-07T04:35:29;1.30;;;1.20;;
36449;SDS011;22475;51.390;7.180;2023-05-07T04:37:56;1.40;;;1.30;;
36449;SDS011;22475;51.390;7.180;2023-05-07T04:40:22;1.50;;;1.40;;
36449;SDS011;22475;51.390;7.180;2023-05-07T04:42:49;1.55;;;1.45;;
36449;SDS011;22475;51.390;7.180;2023-05-07T04:45:16;0.88;;;0.88;;
36449;SDS011;22475;51.390;7.180;2023-05-07T04:47:43;2.88;;;1.27;;
36449;SDS011;22475;51.390;7.180;2023-05-07T04:50:11;1.30;;;1.00;;
36449;SDS011;22475;51.390;7.180;2023-05-07T04:52:38;5.35;;;1.73;;
36449;SDS011;22475;51.390;7.180;2023-05-07T04:55:05;2.95;;;1.35;;
36449;SDS011;22475;51.390;7.180;2023-05-07T04:57:32;1.48;;;1.35;;
36449;SDS011;22475;51.390;7.180;2023-05-07T04:59:59;2.22;;;1.80;;
36449;SDS011;22475;51.390;7.180;2023-05-07T05:02:26;2.28;;;1.50;;
36449;SDS011;22475;51.390;7.180;2023-05-07T05:04:52;1.60;;;1.50;;
36449;SDS011;22475;51.390;7.180;2023-05-07T05:07:20;4.28;;;1.30;;
36449;SDS011;22475;51.390;7.180;2023-05-07T05:09:47;3.33;;;1.40;;
36449;SDS011;22475;51.390;7.180;2023-05-07T05:12:14;1.70;;;1.58;;
36449;SDS011;22475;51.390;7.180;2023-05-07T05:14:41;1.77;;;1.55;;
36449;SDS011;22475;51.390;7.180;2023-05-07T05:17:08;3.33;;;1.50;;
36449;SDS011;22475;51.390;7.180;2023-05-07T05:19:34;2.00;;;1.52;;
36449;SDS011;22475;51.390;7.180;2023-05-07T05:22:01;2.17;;;1.20;;
36449;SDS011;22475;51.390;7.180;2023-05-07T05:24:30;1.58;;;1.33;;
36449;SDS011;22475;51.390;7.180;2023-05-07T05:26:57;1.92;;;1.15;;
36449;SDS011;22475;51.390;7.180;2023-05-07T05:29:24;1.00;;;0.90;;
36449;SDS011;22475;51.390;7.180;2023-05-07T05:31:51;1.15;;;1.05;;
36449;SDS011;22475;51.390;7.180;2023-05-07T05:34:18;1.65;;;1.20;;
36449;SDS011;22475;51.390;7.180;2023-05-07T05:36:46;3.33;;;0.77;;
36449;SDS011;22475;51.390;7.180;2023-05-07T05:39:13;1.23;;;1.08;;
36449;SDS011;22475;51.390;7.180;2023-05-07T05:41:41;3.58;;;1.33;;
36449;SDS011;22475;51.390;7.180;2023-05-07T05:44:08;1.20;;;0.98;;
36449;SDS011;22475;51.390;7.180;2023-05-07T05:46:35;1.50;;;1.30;;
36449;SDS011;22475;51.390;7.180;2023-05-07T05:49:02;1.90;;;1.23;;
36449;SDS011;22475;51.390;7.180;2023-05-07T05:51:28;1.23;;;1.23;;
36449;SDS011;22475;51.390;7.180;2023-05-07T05:53:55;3.78;;;2.33;;
36449;SDS011;22475;51.390;7.180;2023-05-07T05:56:22;1.90;;;1.80;;
36449;SDS011;22475;51.390;7.180;2023-05-07T05:58:50;1.13;;;0.98;;
36449;SDS011;22475;51.390;7.180;2023-05-07T06:01:17;2.55;;;1.95;;
36449;SDS011;22475;51.390;7.180;2023-05-07T06:03:44;5.10;;;2.60;;
36449;SDS011;22475;51.390;7.180;2023-05-07T06:06:11;3.60;;;2.80;;
36449;SDS011;22475;51.390;7.180;2023-05-07T06:08:39;2.00;;;1.90;;
36449;SDS011;22475;51.390;7.180;2023-05-07T06:11:06;1.73;;;1.63;;
36449;SDS011;22475;51.390;7.180;2023-05-07T06:13:33;1.98;;;1.70;;
36449;SDS011;22475;51.390;7.180;2023-05-07T06:16:01;1.70;;;1.20;;
36449;SDS011;22475;51.390;7.180;2023-05-07T06:18:28;1.38;;;1.27;;
36449;SDS011;22475;51.390;7.180;2023-05-07T06:20:54;2.35;;;1.80;;
36449;SDS011;22475;51.390;7.180;2023-05-07T06:23:21;1.27;;;1.17;;
36449;SDS011;22475;51.390;7.180;2023-05-07T06:25:48;3.15;;;1.40;;
36449;SDS011;22475;51.390;7.180;2023-05-07T06:28:15;2.15;;;1.60;;
36449;SDS011;22475;51.390;7.180;2023-05-07T06:30:42;1.30;;;1.20;;
36449;SDS011;22475;51.390;7.180;2023-05-07T06:33:10;1.35;;;1.25;;
36449;SDS011;22475;51.390;7.180;2023-05-07T06:35:37;2.00;;;1.58;;
36449;SDS011;22475;51.390;7.180;2023-05-07T06:38:03;1.58;;;1.48;;
36449;SDS011;22475;51.390;7.180;2023-05-07T06:40:30;4.03;;;1.60;;
36449;SDS011;22475;51.390;7.180;2023-05-07T06:42:57;1.20;;;1.20;;
36449;SDS011;22475;51.390;7.180;2023-05-07T06:45:24;1.98;;;1.33;;
36449;SDS011;22475;51.390;7.180;2023-05-07T06:47:50;1.52;;;1.13;;
36449;SDS011;22475;51.390;7.180;2023-05-07T06:50:19;1.83;;;1.73;;
36449;SDS011;22475;51.390;7.180;2023-05-07T06:52:46;1.10;;;0.82;;
36449;SDS011;22475;51.390;7.180;2023-05-07T06:55:13;1.20;;;1.10;;
36449;SDS011;22475;51.390;7.180;2023-05-07T06:57:39;1.42;;;1.00;;
36449;SDS011;22475;51.390;7.180;2023-05-07T07:00:07;0.88;;;0.75;;
36449;SDS011;22475;51.390;7.180;2023-05-07T07:02:36;1.33;;;0.93;;
36449;SDS011;22475;51.390;7.180;2023-05-07T07:05:03;0.70;;;0.70;;
36449;SDS011;22475;51.390;7.180;2023-05-07T07:07:31;0.60;;;0.60;;
36449;SDS011;22475;51.390;7.180;2023-05-07T07:09:58;0.98;;;0.98;;
36449;SDS011;22475;51.390;7.180;2023-05-07T07:12:25;1.52;;;0.90;;
36449;SDS011;22475;51.390;7.180;2023-05-07T07:14:51;6.72;;;1.13;;
36449;SDS011;22475;51.390;7.180;2023-05-07T07:17:18;1.02;;;0.93;;
36449;SDS011;22475;51.390;7.180;2023-05-07T07:19:45;0.70;;;0.70;;
36449;SDS011;22475;51.390;7.180;2023-05-07T07:22:12;1.15;;;1.05;;
36449;SDS011;22475;51.390;7.180;2023-05-07T07:24:40;1.20;;;1.10;;
36449;SDS011;22475;51.390;7.180;2023-05-07T07:27:06;1.05;;;0.95;;
36449;SDS011;22475;51.390;7.180;2023-05-07T07:29:33;0.95;;;0.82;;
36449;SDS011;22475;51.390;7.180;2023-05-07T07:32:00;1.10;;;0.75;;
36449;SDS011;22475;51.390;7.180;2023-05-07T07:34:26;0.80;;;0.80;;
36449;SDS011;22475;51.390;7.180;2023-05-07T07:36:53;0.70;;;0.70;;
36449;SDS011;22475;51.390;7.180;2023-05-07T07:39:21;0.98;;;0.65;;
36449;SDS011;22475;51.390;7.180;2023-05-07T07:41:49;1.27;;;1.17;;
36449;SDS011;22475;51.390;7.180;2023-05-07T07:44:15;0.73;;;0.70;;
36449;SDS011;22475;51.390;7.180;2023-05-07T07:46:42;0.98;;;0.80;;
36449;SDS011;22475;51.390;7.180;2023-05-07T07:49:09;0.80;;;0.80;;
36449;SDS011;22475;51.390;7.180;2023-05-07T07:51:36;0.95;;;0.82;;
36449;SDS011;22475;51.390;7.180;2023-05-07T07:54:03;0.90;;;0.60;;
36449;SDS011;22475;51.390;7.180;2023-05-07T07:56:29;2.17;;;0.70;;
36449;SDS011;22475;51.390;7.180;2023-05-07T07:58:59;1.92;;;1.38;;
36449;SDS011;22475;51.390;7.180;2023-05-07T08:01:26;0.80;;;0.80;;
36449;SDS011;22475;51.390;7.180;2023-05-07T08:03:53;1.05;;;0.93;;
36449;SDS011;22475;51.390;7.180;2023-05-07T08:06:20;0.75;;;0.70;;
36449;SDS011;22475;51.390;7.180;2023-05-07T08:08:46;0.80;;;0.80;;
36449;SDS011;22475;51.390;7.180;2023-05-07T08:11:14;0.68;;;0.68;;
36449;SDS011;22475;51.390;7.180;2023-05-07T08:13:40;2.92;;;0.70;;
36449;SDS011;22475;51.390;7.180;2023-05-07T08:16:09;1.08;;;0.60;;
36449;SDS011;22475;51.390;7.180;2023-05-07T08:18:35;0.70;;;0.70;;
36449;SDS011;22475;51.390;7.180;2023-05-07T08:21:04;0.57;;;0.57;;
36449;SDS011;22475;51.390;7.180;2023-05-07T08:23:34;0.90;;;0.70;;
36449;SDS011;22475;51.390;7.180;2023-05-07T08:26:01;1.00;;;0.88;;
36449;SDS011;22475;51.390;7.180;2023-05-07T08:28:28;0.80;;;0.68;;
36449;SDS011;22475;51.390;7.180;2023-05-07T08:30:54;1.10;;;0.82;;
36449;SDS011;22475;51.390;7.180;2023-05-07T08:33:26;1.92;;;0.95;;
36449;SDS011;22475;51.390;7.180;2023-05-07T08:35:52;0.80;;;0.80;;
36449;SDS011;22475;51.390;7.180;2023-05-07T08:38:19;0.85;;;0.85;;
36449;SDS011;22475;51.390;7.180;2023-05-07T08:40:46;0.70;;;0.70;;
36449;SDS011;22475;51.390;7.180;2023-05-07T08:43:13;0.55;;;0.55;;
36449;SDS011;22475;51.390;7.180;2023-05-07T08:45:40;1.55;;;0.60;;
36449;SDS011;22475;51.390;7.180;2023-05-07T08:48:08;0.98;;;0.82;;
36449;SDS011;22475;51.390;7.180;2023-05-07T08:50:44;0.90;;;0.80;;
36449;SDS011;22475;51.390;7.180;2023-05-07T08:53:11;0.75;;;0.70;;
36449;SDS011;22475;51.390;7.180;2023-05-07T08:55:38;1.35;;;0.95;;
36449;SDS011;22475;51.390;7.180;2023-05-07T08:58:05;0.90;;;0.70;;
36449;SDS011;22475;51.390;7.180;2023-05-07T09:00:32;3.10;;;0.65;;
36449;SDS011;22475;51.390;7.180;2023-05-07T09:02:59;1.00;;;0.95;;
36449;SDS011;22475;51.390;7.180;2023-05-07T09:05:26;0.82;;;0.82;;
36449;SDS011;22475;51.390;7.180;2023-05-07T09:07:54;1.23;;;0.98;;
36449;SDS011;22475;51.390;7.180;2023-05-07T09:10:21;0.80;;;0.80;;
36449;SDS011;22475;51.390;7.180;2023-05-07T09:12:48;0.82;;;0.82;;
36449;SDS011;22475;51.390;7.180;2023-05-07T09:15:14;0.77;;;0.75;;
36449;SDS011;22475;51.390;7.180;2023-05-07T09:17:41;0.65;;;0.65;;
36449;SDS011;22475;51.390;7.180;2023-05-07T09:20:09;0.70;;;0.70;;
36449;SDS011;22475;51.390;7.180;2023-05-07T09:22:36;0.88;;;0.88;;
36449;SDS011;22475;51.390;7.180;2023-05-07T09:25:06;1.10;;;0.90;;
36449;SDS011;22475;51.390;7.180;2023-05-07T09:27:34;0.80;;;0.55;;
36449;SDS011;22475;51.390;7.180;2023-05-07T09:30:02;0.50;;;0.50;;
36449;SDS011;22475;51.390;7.180;2023-05-07T09:32:30;1.00;;;0.95;;
36449;SDS011;22475;51.390;7.180;2023-05-07T09:35:00;0.43;;;0.43;;
36449;SDS011;22475;51.390;7.180;2023-05-07T09:37:27;2.42;;;0.65;;
36449;SDS011;22475;51.390;7.180;2023-05-07T09:39:56;2.38;;;0.65;;
36449;SDS011;22475;51.390;7.180;2023-05-07T09:42:24;0.95;;;0.88;;
36449;SDS011;22475;51.390;7.180;2023-05-07T09:44:52;0.70;;;0.70;;
36449;SDS011;22475;51.390;7.180;2023-05-07T09:47:19;0.50;;;0.50;;
36449;SDS011;22475;51.390;7.180;2023-05-07T09:49:49;0.95;;;0.75;;
36449;SDS011;22475;51.390;7.180;2023-05-07T09:52:21;1.15;;;0.82;;
36449;SDS011;22475;51.390;7.180;2023-05-07T09:54:49;0.88;;;0.88;;
36449;SDS011;22475;51.390;7.180;2023-05-07T09:57:18;2.60;;;0.93;;
36449;SDS011;22475;51.390;7.180;2023-05-07T09:59:47;0.80;;;0.80;;
36449;SDS011;22475;51.390;7.180;2023-05-07T10:04:44;0.70;;;0.40;;
36449;SDS011;22475;51.390;7.180;2023-05-07T10:07:13;0.70;;;0.70;;
36449;SDS011;22475;51.390;7.180;2023-05-07T10:09:41;0.70;;;0.70;;
36449;SDS011;22475;51.390;7.180;2023-05-07T10:12:09;1.00;;;0.95;;
36449;SDS011;22475;51.390;7.180;2023-05-07T10:14:36;0.65;;;0.65;;
36449;SDS011;22475;51.390;7.180;2023-05-07T10:17:04;0.75;;;0.75;;
36449;SDS011;22475;51.390;7.180;2023-05-07T10:19:33;0.82;;;0.65;;
36449;SDS011;22475;51.390;7.180;2023-05-07T10:22:03;0.70;;;0.70;;
36449;SDS011;22475;51.390;7.180;2023-05-07T10:24:32;0.60;;;0.50;;
36449;SDS011;22475;51.390;7.180;2023-05-07T10:27:00;0.55;;;0.55;;
36449;SDS011;22475;51.390;7.180;2023-05-07T10:29:32;0.80;;;0.68;;
36449;SDS011;22475;51.390;7.180;2023-05-07T10:32:19;0.60;;;0.60;;
36449;SDS011;22475;51.390;7.180;2023-05-07T10:34:56;1.52;;;0.55;;
36449;SDS011;22475;51.390;7.180;2023-05-07T10:37:26;0.63;;;0.63;;
36449;SDS011;22475;51.390;7.180;2023-05-07T10:39:53;0.50;;;0.47;;
36449;SDS011;22475;51.390;7.180;2023-05-07T10:42:20;0.70;;;0.70;;
36449;SDS011;22475;51.390;7.180;2023-05-07T10:44:47;0.88;;;0.80;;
36449;SDS011;22475;51.390;7.180;2023-05-07T10:47:16;1.02;;;0.88;;
36449;SDS011;22475;51.390;7.180;2023-05-07T10:55:51;0.93;;;0.82;;
36449;SDS011;22475;51.390;7.180;2023-05-07T10:58:50;0.70;;;0.70;;
36449;SDS011;22475;51.390;7.180;2023-05-07T11:01:19;0.60;;;0.60;;
36449;SDS011;22475;51.390;7.180;2023-05-07T11:04:17;1.02;;;0.75;;
36449;SDS011;22475;51.390;7.180;2023-05-07T11:09:54;0.70;;;0.70;;
36449;SDS011;22475;51.390;7.180;2023-05-07T11:18:18;3.60;;;0.65;;
36449;SDS011;22475;51.390;7.180;2023-05-07T11:20:52;1.02;;;0.60;;
36449;SDS011;22475;51.390;7.180;2023-05-07T11:26:22;0.73;;;0.73;;
36449;SDS011;22475;51.390;7.180;2023-05-07T11:28:50;0.68;;;0.68;;
36449;SDS011;22475;51.390;7.180;2023-05-07T11:31:20;0.70;;;0.70;;
36449;SDS011;22475;51.390;7.180;2023-05-07T11:33:49;0.35;;;0.35;;
36449;SDS011;22475;51.390;7.180;2023-05-07T11:36:17;0.50;;;0.50;;
36449;SDS011;22475;51.390;7.180;2023-05-07T11:38:44;0.90;;;0.85;;
36449;SDS011;22475;51.390;7.180;2023-05-07T11:41:11;0.73;;;0.73;;
36449;SDS011;22475;51.390;7.180;2023-05-07T11:43:40;0.70;;;0.43;;
36449;SDS011;22475;51.390;7.180;2023-05-07T11:46:21;0.57;;;0.57;;
36449;SDS011;22475;51.390;7.180;2023-05-07T11:48:47;1.08;;;0.80;;
36449;SDS011;22475;51.390;7.180;2023-05-07T11:51:18;0.68;;;0.68;;
36449;SDS011;22475;51.390;7.180;2023-05-07T11:53:46;0.70;;;0.65;;
36449;SDS011;22475;51.390;7.180;2023-05-07T11:56:13;0.68;;;0.68;;
36449;SDS011;22475;51.390;7.180;2023-05-07T11:58:41;0.70;;;0.70;;
36449;SDS011;22475;51.390;7.180;2023-05-07T12:01:10;0.65;;;0.65;;
36449;SDS011;22475;51.390;7.180;2023-05-07T12:03:39;0.82;;;0.82;;
36449;SDS011;22475;51.390;7.180;2023-05-07T12:06:09;0.68;;;0.68;;
36449;SDS011;22475;51.390;7.180;2023-05-07T12:08:37;0.82;;;0.52;;
36449;SDS011;22475;51.390;7.180;2023-05-07T12:11:07;0.73;;;0.60;;
36449;SDS011;22475;51.390;7.180;2023-05-07T12:13:35;0.57;;;0.57;;
36449;SDS011;22475;51.390;7.180;2023-05-07T12:16:02;0.73;;;0.73;;
36449;SDS011;22475;51.390;7.180;2023-05-07T12:18:30;1.38;;;0.60;;
36449;SDS011;22475;51.390;7.180;2023-05-07T12:20:57;0.60;;;0.60;;
36449;SDS011;22475;51.390;7.180;2023-05-07T12:23:26;0.68;;;0.68;;
36449;SDS011;22475;51.390;7.180;2023-05-07T12:25:53;0.47;;;0.45;;
36449;SDS011;22475;51.390;7.180;2023-05-07T12:28:20;0.50;;;0.50;;
36449;SDS011;22475;51.390;7.180;2023-05-07T12:30:47;0.60;;;0.60;;
36449;SDS011;22475;51.390;7.180;2023-05-07T12:33:16;0.70;;;0.70;;
36449;SDS011;22475;51.390;7.180;2023-05-07T12:38:14;0.65;;;0.65;;
36449;SDS011;22475;51.390;7.180;2023-05-07T12:40:44;0.68;;;0.57;;
36449;SDS011;22475;51.390;7.180;2023-05-07T12:43:15;1.27;;;1.17;;
36449;SDS011;22475;51.390;7.180;2023-05-07T12:45:43;1.10;;;0.82;;
36449;SDS011;22475;51.390;7.180;2023-05-07T12:48:11;2.25;;;0.68;;
36449;SDS011;22475;51.390;7.180;2023-05-07T12:50:38;0.63;;;0.57;;
36449;SDS011;22475;51.390;7.180;2023-05-07T12:53:05;0.50;;;0.50;;
36449;SDS011;22475;51.390;7.180;2023-05-07T12:55:39;0.50;;;0.50;;
36449;SDS011;22475;51.390;7.180;2023-05-07T12:58:09;0.50;;;0.50;;
36449;SDS011;22475;51.390;7.180;2023-05-07T13:00:42;0.60;;;0.60;;
36449;SDS011;22475;51.390;7.180;2023-05-07T13:03:09;0.60;;;0.60;;
36449;SDS011;22475;51.390;7.180;2023-05-07T13:05:36;0.65;;;0.40;;
36449;SDS011;22475;51.390;7.180;2023-05-07T13:08:03;0.60;;;0.55;;
36449;SDS011;22475;51.390;7.180;2023-05-07T13:10:30;0.70;;;0.70;;
36449;SDS011;22475;51.390;7.180;2023-05-07T13:12:59;0.77;;;0.63;;
36449;SDS011;22475;51.390;7.180;2023-05-07T13:15:27;0.95;;;0.85;;
36449;SDS011;22475;51.390;7.180;2023-05-07T13:17:53;0.50;;;0.43;;
36449;SDS011;22475;51.390;7.180;2023-05-07T13:20:20;0.60;;;0.60;;
36449;SDS011;22475;51.390;7.180;2023-05-07T13:22:47;0.60;;;0.55;;
36449;SDS011;22475;51.390;7.180;2023-05-07T13:25:14;0.40;;;0.40;;
36449;SDS011;22475;51.390;7.180;2023-05-07T13:27:41;1.00;;;0.85;;
36449;SDS011;22475;51.390;7.180;2023-05-07T13:30:08;0.60;;;0.60;;
36449;SDS011;22475;51.390;7.180;2023-05-07T13:32:36;0.63;;;0.63;;
36449;SDS011;22475;51.390;7.180;2023-05-07T13:35:03;0.65;;;0.65;;
36449;SDS011;22475;51.390;7.180;2023-05-07T13:37:31;0.70;;;0.70;;
36449;SDS011;22475;51.390;7.180;2023-05-07T13:39:58;0.60;;;0.60;;
36449;SDS011;22475;51.390;7.180;2023-05-07T13:42:24;0.73;;;0.73;;
36449;SDS011;22475;51.390;7.180;2023-05-07T13:44:51;0.68;;;0.63;;
36449;SDS011;22475;51.390;7.180;2023-05-07T13:47:18;0.60;;;0.60;;
36449;SDS011;22475;51.390;7.180;2023-05-07T13:49:46;1.05;;;0.60;;
36449;SDS011;22475;51.390;7.180;2023-05-07T13:52:14;0.85;;;0.70;;
36449;SDS011;22475;51.390;7.180;2023-05-07T13:54:41;0.68;;;0.68;;
36449;SDS011;22475;51.390;7.180;2023-05-07T13:57:08;2.28;;;0.80;;
36449;SDS011;22475;51.390;7.180;2023-05-07T13:59:34;1.00;;;1.00;;
36449;SDS011;22475;51.390;7.180;2023-05-07T14:02:01;0.70;;;0.65;;
36449;SDS011;22475;51.390;7.180;2023-05-07T14:04:28;0.77;;;0.77;;
36449;SDS011;22475;51.390;7.180;2023-05-07T14:06:57;1.55;;;0.65;;
36449;SDS011;22475;51.390;7.180;2023-05-07T14:09:24;0.70;;;0.70;;
36449;SDS011;22475;51.390;7.180;2023-05-07T14:11:51;2.08;;;1.10;;
36449;SDS011;22475;51.390;7.180;2023-05-07T14:14:18;0.90;;;0.70;;
36449;SDS011;22475;51.390;7.180;2023-05-07T14:16:45;0.43;;;0.43;;
36449;SDS011;22475;51.390;7.180;2023-05-07T14:19:12;0.60;;;0.60;;
36449;SDS011;22475;51.390;7.180;2023-05-07T14:21:38;1.77;;;0.95;;
36449;SDS011;22475;51.390;7.180;2023-05-07T14:24:07;2.50;;;0.60;;
36449;SDS011;22475;51.390;7.180;2023-05-07T14:26:34;1.00;;;0.90;;
36449;SDS011;22475;51.390;7.180;2023-05-07T14:29:00;0.73;;;0.63;;
36449;SDS011;22475;51.390;7.180;2023-05-07T14:31:27;1.15;;;1.05;;
36449;SDS011;22475;51.390;7.180;2023-05-07T14:33:54;0.70;;;0.70;;
36449;SDS011;22475;51.390;7.180;2023-05-07T14:36:22;1.00;;;0.90;;
36449;SDS011;22475;51.390;7.180;2023-05-07T14:38:51;0.88;;;0.88;;
36449;SDS011;22475;51.390;7.180;2023-05-07T14:41:19;1.00;;;0.73;;
36449;SDS011;22475;51.390;7.180;2023-05-07T14:43:46;0.77;;;0.77;;
36449;SDS011;22475;51.390;7.180;2023-05-07T14:46:15;0.60;;;0.60;;
36449;SDS011;22475;51.390;7.180;2023-05-07T14:48:43;1.33;;;1.23;;
36449;SDS011;22475;51.390;7.180;2023-05-07T14:51:10;0.80;;;0.80;;
36449;SDS011;22475;51.390;7.180;2023-05-07T14:53:37;1.55;;;0.85;;
36449;SDS011;22475;51.390;7.180;2023-05-07T14:56:04;1.10;;;1.05;;
36449;SDS011;22475;51.390;7.180;2023-05-07T14:58:32;0.68;;;0.68;;
36449;SDS011;22475;51.390;7.180;2023-05-07T15:00:59;1.05;;;1.05;;
36449;SDS011;22475;51.390;7.180;2023-05-07T15:03:26;1.02;;;0.93;;
36449;SDS011;22475;51.390;7.180;2023-05-07T15:05:53;1.58;;;1.40;;
36449;SDS011;22475;51.390;7.180;2023-05-07T15:08:20;0.77;;;0.75;;
36449;SDS011;22475;51.390;7.180;2023-05-07T15:10:47;0.88;;;0.77;;
36449;SDS011;22475;51.390;7.180;2023-05-07T15:13:14;1.20;;;0.70;;
36449;SDS011;22475;51.390;7.180;2023-05-07T15:15:42;0.80;;;0.80;;